Time;durP1;ratioP1;P1;durP2;ratioP2;P2;SDS_P1;SDS_P2;PMS_P1;PMS_P2;Temp;Humidity;BMP_temperature;BMP_pressure;BME280_temperature;BME280_humidity;BME280_pressure;Samples;Min_cycle;Max_cycle;Signal;HPM_P1;HPM_P2
2023/10/05 00:02:05;;;;;;;1999.90;999.90;;;13.20;99.90;;;;;;4974206;28;20043;-71
2023/10/05 00:04:40;;;;;;;1999.90;999.90;;;13.20;99.90;;;;;;4984569;28;20054;-71
2023/10/05 00:07:11;;;;;;;1999.90;999.90;;;13.20;99.90;;;;;;4969889;28;20755;-71
2023/10/05 00:09:38;;;;;;;1999.90;999.90;;;13.30;99.90;;;;;;4986411;28;20061;-71
2023/10/05 00:12:07;;;;;;;1999.90;999.90;;;13.30;99.90;;;;;;4984549;28;20091;-71
2023/10/05 00:14:35;;;;;;;1999.90;999.90;;;13.30;99.90;;;;;;4979216;28;20047;-71
2023/10/05 00:17:04;;;;;;;1999.90;999.90;;;13.30;99.90;;;;;;4985850;28;20436;-72
2023/10/05 00:19:35;;;;;;;1999.90;999.90;;;13.30;99.90;;;;;;4972062;28;20051;-71
2023/10/05 00:22:00;;;;;;;1999.90;999.90;;;13.30;99.90;;;;;;4974374;28;20046;-72
2023/10/05 00:24:37;;;;;;;1999.90;999.90;;;13.30;99.90;;;;;;4986308;28;20050;-71
2023/10/05 00:27:08;;;;;;;1999.90;999.90;;;13.30;99.90;;;;;;4979654;28;20050;-71
2023/10/05 00:29:40;;;;;;;1999.90;999.90;;;13.30;99.90;;;;;;4980013;28;20042;-72
2023/10/05 00:32:18;;;;;;;1999.90;999.90;;;13.30;99.90;;;;;;4984068;28;20100;-71
2023/10/05 00:34:47;;;;;;;1999.90;999.90;;;13.30;99.90;;;;;;4978956;28;20499;-72
2023/10/05 00:37:13;;;;;;;1999.90;999.90;;;13.30;99.90;;;;;;4979817;28;20050;-71
2023/10/05 00:39:44;;;;;;;1999.90;999.90;;;13.20;99.90;;;;;;4989001;28;20050;-72
2023/10/05 00:42:10;;;;;;;1999.90;999.90;;;13.30;99.90;;;;;;4988187;28;20058;-71
2023/10/05 00:44:38;;;;;;;1999.90;999.90;;;13.20;99.90;;;;;;4987871;28;20042;-72
2023/10/05 00:47:06;;;;;;;1999.90;999.90;;;13.20;99.90;;;;;;4988979;28;20592;-72
2023/10/05 00:52:30;;;;;;;1999.90;999.90;;;13.20;99.90;;;;;;4957894;28;20159;-72
2023/10/05 00:54:59;;;;;;;1999.90;999.90;;;13.20;99.90;;;;;;4927878;29;20086;-72
2023/10/05 00:57:25;;;;;;;1999.90;999.90;;;13.20;99.90;;;;;;4920340;28;20130;-72
2023/10/05 01:02:21;;;;;;;1999.90;999.90;;;13.10;99.90;;;;;;4928133;28;20052;-72
2023/10/05 01:04:57;;;;;;;1999.90;999.90;;;13.20;99.90;;;;;;4962233;28;20044;-72
2023/10/05 01:10:21;;;;;;;1999.90;999.90;;;13.10;99.90;;;;;;4921815;28;20067;-72
2023/10/05 01:12:47;;;;;;;1999.90;999.90;;;13.10;99.90;;;;;;4926347;28;20087;-71
2023/10/05 01:15:19;;;;;;;1999.90;999.90;;;13.20;99.90;;;;;;4931512;28;20055;-71
2023/10/05 01:17:46;;;;;;;1999.90;999.90;;;13.20;99.90;;;;;;4911689;28;20194;-72
2023/10/05 01:20:22;;;;;;;1999.90;999.90;;;13.20;99.90;;;;;;4928040;28;20170;-72
2023/10/05 01:22:58;;;;;;;1999.90;999.90;;;13.20;99.90;;;;;;4919103;28;20590;-72
2023/10/05 01:25:25;;;;;;;1999.90;999.90;;;13.10;99.90;;;;;;4963679;28;20411;-71
2023/10/05 01:27:51;;;;;;;1999.90;999.90;;;13.10;99.90;;;;;;4909779;28;20123;-72
2023/10/05 01:30:18;;;;;;;1999.90;999.90;;;13.10;99.90;;;;;;5008053;28;20069;-72
2023/10/05 01:32:45;;;;;;;1999.90;999.90;;;13.10;99.90;;;;;;4982523;28;20049;-72
2023/10/05 01:35:15;;;;;;;1999.90;999.90;;;13.10;99.90;;;;;;4980463;28;20053;-72
2023/10/05 01:37:44;;;;;;;1999.90;999.90;;;13.00;99.90;;;;;;4980837;28;20454;-72
2023/10/05 01:40:25;;;;;;;1999.90;999.90;;;13.00;99.90;;;;;;4984814;28;20074;-72
2023/10/05 01:42:52;;;;;;;1999.90;999.90;;;13.00;99.90;;;;;;4981305;28;20051;-71
2023/10/05 01:45:43;;;;;;;1999.90;999.90;;;13.00;99.90;;;;;;5002852;28;20035;-71
2023/10/05 01:48:12;;;;;;;1999.90;999.90;;;13.00;99.90;;;;;;4977409;28;20050;-72
2023/10/05 01:50:39;;;;;;;;;;;13.00;99.90;;;;;;4976089;28;20958;-71
2023/10/05 01:53:18;;;;;;;1999.90;999.90;;;13.00;99.90;;;;;;4971486;28;20339;-72
2023/10/05 01:55:53;;;;;;;1999.90;999.90;;;13.00;99.90;;;;;;4975952;28;20058;-72
2023/10/05 01:58:22;;;;;;;1999.90;999.90;;;13.00;99.90;;;;;;4979109;28;20050;-72
2023/10/05 02:00:48;;;;;;;1999.90;999.90;;;13.00;99.90;;;;;;4976630;28;20049;-72
2023/10/05 02:03:14;;;;;;;1999.90;999.90;;;13.00;99.90;;;;;;5045524;28;20036;-72
2023/10/05 02:05:41;;;;;;;1999.90;999.90;;;13.00;99.90;;;;;;4985831;28;20038;-72
2023/10/05 02:08:07;;;;;;;1999.90;999.90;;;12.90;99.90;;;;;;4979007;28;20042;-72
2023/10/05 02:10:33;;;;;;;1999.90;999.90;;;12.90;99.90;;;;;;4994638;28;20058;-72
2023/10/05 02:13:01;;;;;;;1999.90;999.90;;;13.00;99.90;;;;;;4984723;28;20065;-72
2023/10/05 02:15:30;;;;;;;1999.90;999.90;;;13.00;99.90;;;;;;4986414;28;20050;-72
2023/10/05 02:18:07;;;;;;;1999.90;999.90;;;13.10;99.90;;;;;;4977563;28;20485;-72
2023/10/05 02:22:58;;;;;;;1999.90;999.90;;;13.30;99.90;;;;;;4979644;28;20042;-71
2023/10/05 02:25:34;;;;;;;1999.90;999.90;;;13.30;99.90;;;;;;4982983;28;20121;-72
2023/10/05 02:28:00;;;;;;;1999.90;999.90;;;13.40;99.90;;;;;;4987576;28;20057;-72
2023/10/05 02:30:29;;;;;;;1999.90;999.90;;;13.40;99.90;;;;;;4978201;28;20485;-72
2023/10/05 02:32:59;;;;;;;1999.90;999.90;;;13.40;99.90;;;;;;4982093;28;20046;-72
2023/10/05 02:35:32;;;;;;;1999.90;999.90;;;13.50;99.90;;;;;;4982050;28;20411;-71
2023/10/05 02:37:59;;;;;;;1999.90;999.90;;;13.60;99.90;;;;;;4984343;28;20144;-72
2023/10/05 02:40:35;;;;;;;1999.90;999.90;;;13.70;99.90;;;;;;4984200;28;20080;-71
2023/10/05 02:43:06;;;;;;;1999.90;999.90;;;13.70;99.90;;;;;;4987383;28;20447;-71
2023/10/05 02:45:32;;;;;;;1999.90;999.90;;;13.70;99.90;;;;;;4982388;28;20061;-72
2023/10/05 02:47:57;;;;;;;1999.90;999.90;;;13.70;99.90;;;;;;4977319;28;20034;-72
2023/10/05 02:50:23;;;;;;;1999.90;999.90;;;13.80;99.90;;;;;;5018285;28;20044;-72
2023/10/05 02:52:49;;;;;;;1999.90;999.90;;;13.80;99.90;;;;;;5053094;27;20095;-72
2023/10/05 02:55:15;;;;;;;1999.90;999.90;;;13.80;99.90;;;;;;4975855;28;20043;-72
2023/10/05 02:57:43;;;;;;;1999.90;999.90;;;13.80;99.90;;;;;;4975352;28;20050;-72
2023/10/05 03:00:11;;;;;;;1999.90;999.90;;;13.80;99.90;;;;;;4982972;28;20058;-72
2023/10/05 03:02:45;;;;;;;1999.90;999.90;;;13.80;99.90;;;;;;5002514;28;20494;-72
2023/10/05 03:05:10;;;;;;;;;;;13.80;99.90;;;;;;5008046;28;20433;-71
2023/10/05 03:07:41;;;;;;;1999.90;999.90;;;13.90;99.90;;;;;;4984478;28;19921;-72
2023/10/05 03:10:11;;;;;;;1999.90;999.90;;;13.80;99.90;;;;;;4978109;28;20123;-72
2023/10/05 03:12:37;;;;;;;1999.90;999.90;;;13.90;99.90;;;;;;4976623;28;20046;-72
2023/10/05 03:15:06;;;;;;;1999.90;999.90;;;13.90;99.90;;;;;;4975230;28;20046;-72
2023/10/05 03:17:33;;;;;;;1999.90;999.90;;;14.00;99.90;;;;;;4984263;28;20058;-72
2023/10/05 03:19:59;;;;;;;1999.90;999.90;;;14.10;99.90;;;;;;4983195;28;20402;-71
2023/10/05 03:22:24;;;;;;;1999.90;999.90;;;14.10;99.90;;;;;;4977461;28;20039;-72
2023/10/05 03:24:50;;;;;;;1999.90;999.90;;;14.10;99.90;;;;;;4979478;28;20091;-72
2023/10/05 03:27:17;;;;;;;1999.90;999.90;;;14.10;99.90;;;;;;4975910;28;20055;-71
2023/10/05 03:29:46;;;;;;;1999.90;999.90;;;14.10;99.90;;;;;;4980368;28;20038;-72
2023/10/05 03:34:38;;;;;;;1999.90;999.90;;;14.10;99.90;;;;;;4979501;28;20398;-72
2023/10/05 03:37:08;;;;;;;1999.90;999.90;;;14.20;99.90;;;;;;4976371;28;20050;-72
2023/10/05 03:42:24;;;;;;;1999.90;999.90;;;14.20;99.90;;;;;;4971733;28;20499;-72
2023/10/05 03:45:01;;;;;;;1999.90;999.90;;;14.20;99.90;;;;;;4984986;28;20050;-72
2023/10/05 03:47:27;;;;;;;1999.90;999.90;;;14.30;99.90;;;;;;4985015;28;20046;-72
2023/10/05 03:49:56;;;;;;;1999.90;999.90;;;14.30;99.90;;;;;;4978943;28;20081;-73
2023/10/05 03:52:23;;;;;;;1999.90;999.90;;;14.30;99.90;;;;;;5022555;28;20046;-72
2023/10/05 03:54:49;;;;;;;1999.90;999.90;;;14.30;99.90;;;;;;5005238;28;20064;-72
2023/10/05 03:57:16;;;;;;;1999.90;999.90;;;14.30;99.90;;;;;;4984034;28;20038;-72
2023/10/05 03:59:43;;;;;;;1999.90;999.90;;;14.30;99.90;;;;;;4980685;28;20047;-72
2023/10/05 04:02:09;;;;;;;1999.90;999.90;;;14.20;99.90;;;;;;4982266;28;20042;-72
2023/10/05 04:04:36;;;;;;;1999.90;999.90;;;14.20;99.90;;;;;;4983977;28;20046;-72
2023/10/05 04:07:03;;;;;;;1999.90;999.90;;;14.30;99.90;;;;;;5006705;28;20050;-72
2023/10/05 04:09:29;;;;;;;1999.90;999.90;;;14.20;99.90;;;;;;4992709;28;20403;-71
2023/10/05 04:12:00;;;;;;;1999.90;999.90;;;14.20;99.90;;;;;;4999197;28;20501;-72
2023/10/05 04:14:26;;;;;;;1999.90;999.90;;;14.20;99.90;;;;;;4984615;28;20122;-72
2023/10/05 04:16:53;;;;;;;1999.90;999.90;;;14.10;99.90;;;;;;4981067;28;20053;-72
2023/10/05 04:19:19;;;;;;;1999.90;999.90;;;14.10;99.90;;;;;;4979888;28;20050;-72
2023/10/05 04:21:46;;;;;;;1999.90;999.90;;;14.00;99.90;;;;;;4987998;28;20046;-72
2023/10/05 04:24:15;;;;;;;1999.90;999.90;;;14.00;99.90;;;;;;4953884;28;20130;-72
2023/10/05 04:26:47;;;;;;;1999.90;999.90;;;14.00;99.90;;;;;;4977992;28;20074;-72
2023/10/05 04:29:14;;;;;;;1999.90;999.90;;;14.00;99.90;;;;;;4977535;28;20095;-72
2023/10/05 04:31:41;;;;;;;1999.90;999.90;;;14.00;99.90;;;;;;4981539;28;20047;-72
2023/10/05 04:34:12;;;;;;;1999.90;999.90;;;14.00;99.90;;;;;;5004288;28;20043;-72
2023/10/05 04:36:39;;;;;;;1999.90;999.90;;;14.00;99.90;;;;;;4976117;28;20051;-72
2023/10/05 04:39:07;;;;;;;1999.90;999.90;;;14.10;99.90;;;;;;4981283;28;20043;-72
2023/10/05 04:41:39;;;;;;;1999.90;999.90;;;14.10;99.90;;;;;;4984435;28;20167;-72
2023/10/05 04:44:11;;;;;;;1999.90;999.90;;;14.10;99.90;;;;;;4974426;28;20042;-72
2023/10/05 04:46:37;;;;;;;1999.90;999.90;;;14.10;99.90;;;;;;4982888;28;20053;-72
2023/10/05 04:49:08;;;;;;;1999.90;999.90;;;14.20;99.90;;;;;;4982439;28;20130;-72
2023/10/05 04:51:37;;;;;;;1999.90;999.90;;;14.20;99.90;;;;;;4978703;28;20171;-72
2023/10/05 04:54:03;;;;;;;1999.90;999.90;;;14.20;99.90;;;;;;4982983;28;20447;-72
2023/10/05 04:56:36;;;;;;;1999.90;999.90;;;14.30;99.90;;;;;;4982418;28;20126;-72
2023/10/05 05:07:01;;;;;;;1999.90;999.90;;;14.20;99.90;;;;;;4981641;28;20046;-72
2023/10/05 05:09:34;;;;;;;1999.90;999.90;;;14.10;99.90;;;;;;4988744;28;20038;-73
2023/10/05 05:12:08;;;;;;;1999.90;999.90;;;14.10;99.90;;;;;;4984623;28;20491;-72
2023/10/05 05:14:42;;;;;;;1999.90;999.90;;;14.00;99.90;;;;;;4983978;28;20061;-72
2023/10/05 05:17:11;;;;;;;1999.90;999.90;;;14.00;99.90;;;;;;4981156;28;20042;-72
2023/10/05 05:19:39;;;;;;;1999.90;999.90;;;14.00;99.90;;;;;;4988739;28;20376;-72
2023/10/05 05:22:05;;;;;;;1999.90;999.90;;;13.90;99.90;;;;;;4984143;28;20054;-72
2023/10/05 05:24:37;;;;;;;1999.90;999.90;;;13.90;99.90;;;;;;4975957;28;20077;-72
2023/10/05 05:27:04;;;;;;;1999.90;999.90;;;13.80;99.90;;;;;;4982996;28;20066;-72
2023/10/05 05:29:35;;;;;;;1999.90;999.90;;;13.80;99.90;;;;;;4983854;28;20444;-71
2023/10/05 05:32:10;;;;;;;1999.90;999.90;;;13.70;99.90;;;;;;5004444;28;20047;-71
2023/10/05 05:34:42;;;;;;;;;;;13.70;99.90;;;;;;4985744;28;20046;-72
2023/10/05 05:37:11;;;;;;;1999.90;999.90;;;13.70;99.90;;;;;;4986611;28;19933;-72
2023/10/05 05:39:39;;;;;;;1999.90;999.90;;;13.80;99.90;;;;;;4986749;28;20386;-72
2023/10/05 05:42:14;;;;;;;1999.90;999.90;;;13.80;99.90;;;;;;4994376;28;20048;-72
2023/10/05 05:44:40;;;;;;;1999.90;999.90;;;13.80;99.90;;;;;;5034943;28;20095;-72
2023/10/05 05:47:10;;;;;;;1999.90;999.90;;;13.80;99.90;;;;;;4983498;28;20096;-72
2023/10/05 05:49:39;;;;;;;1999.90;999.90;;;13.80;99.90;;;;;;4979025;28;20122;-72
2023/10/05 05:52:05;;;;;;;1999.90;999.90;;;13.90;99.90;;;;;;5001171;28;20053;-71
2023/10/05 05:54:32;;;;;;;1999.90;999.90;;;13.90;99.90;;;;;;4982290;28;20043;-72
2023/10/05 05:56:58;;;;;;;1999.90;999.90;;;13.90;99.90;;;;;;4982157;28;20111;-72
2023/10/05 05:59:23;;;;;;;1999.90;999.90;;;14.00;99.90;;;;;;4984959;28;20038;-72
2023/10/05 06:01:50;;;;;;;1999.90;999.90;;;14.00;99.90;;;;;;4976692;28;20566;-72
2023/10/05 06:04:16;;;;;;;1999.90;999.90;;;14.00;99.90;;;;;;4970611;28;20096;-72
2023/10/05 06:06:43;;;;;;;1999.90;999.90;;;14.10;99.90;;;;;;4970086;28;20416;-72
2023/10/05 06:09:11;;;;;;;1999.90;999.90;;;14.10;99.90;;;;;;4988053;28;20053;-72
2023/10/05 06:11:38;;;;;;;1999.90;999.90;;;14.20;99.90;;;;;;4978665;28;20045;-72
2023/10/05 06:14:05;;;;;;;1999.90;999.90;;;14.20;99.90;;;;;;4979253;28;20081;-72
2023/10/05 06:16:33;;;;;;;1999.90;999.90;;;14.30;99.90;;;;;;4987939;28;20498;-72
2023/10/05 06:19:00;;;;;;;1999.90;999.90;;;14.30;99.90;;;;;;4978446;28;20074;-72
2023/10/05 06:21:25;;;;;;;1999.90;999.90;;;14.40;99.90;;;;;;4984657;28;20042;-72
2023/10/05 06:23:51;;;;;;;1999.90;999.90;;;14.40;99.90;;;;;;4983255;28;20039;-72
2023/10/05 06:26:17;;;;;;;1999.90;999.90;;;14.50;99.90;;;;;;4987427;28;20119;-72
2023/10/05 06:28:43;;;;;;;1999.90;999.90;;;14.60;99.90;;;;;;4979796;28;20049;-72
2023/10/05 06:31:11;;;;;;;1999.90;999.90;;;14.60;99.90;;;;;;4980722;28;20049;-72
2023/10/05 06:33:38;;;;;;;1999.90;999.90;;;14.60;99.90;;;;;;4984744;28;20546;-72
2023/10/05 06:36:04;;;;;;;1999.90;999.90;;;14.70;99.90;;;;;;4986538;28;20042;-73
2023/10/05 06:38:29;;;;;;;1999.90;999.90;;;14.70;99.90;;;;;;4986000;28;20046;-72
2023/10/05 06:40:55;;;;;;;1999.90;999.90;;;14.80;99.90;;;;;;5009763;28;20123;-72
2023/10/05 06:43:21;;;;;;;1999.90;999.90;;;14.90;99.90;;;;;;4978554;28;20039;-72
2023/10/05 06:45:48;;;;;;;1999.90;999.90;;;14.90;99.90;;;;;;4981363;28;20072;-72
2023/10/05 06:48:14;;;;;;;1999.90;999.90;;;14.90;99.90;;;;;;4983420;28;20042;-73
2023/10/05 06:50:41;;;;;;;1999.90;999.90;;;15.00;99.90;;;;;;4987320;28;20576;-72
2023/10/05 06:53:11;;;;;;;1999.90;999.90;;;15.00;99.90;;;;;;4978751;28;20038;-72
2023/10/05 06:55:36;;;;;;;1999.90;999.90;;;15.00;99.90;;;;;;4986813;28;20513;-72
2023/10/05 06:58:05;;;;;;;1999.90;999.90;;;15.10;99.90;;;;;;4987454;28;20099;-72
2023/10/05 07:00:30;;;;;;;1999.90;999.90;;;15.10;99.90;;;;;;4983999;28;20050;-72
2023/10/05 07:03:06;;;;;;;1999.90;999.90;;;15.10;99.90;;;;;;5006847;28;20047;-73
2023/10/05 07:05:32;;;;;;;1999.90;999.90;;;15.20;99.90;;;;;;4974361;28;20367;-73
2023/10/05 07:07:58;;;;;;;1999.90;999.90;;;15.20;99.90;;;;;;4979508;28;20042;-72
2023/10/05 07:10:23;;;;;;;1999.90;999.90;;;15.20;99.90;;;;;;4985777;28;20513;-72
2023/10/05 07:12:49;;;;;;;1999.90;999.90;;;15.20;99.90;;;;;;4980296;28;20042;-73
2023/10/05 07:15:17;;;;;;;1999.90;999.90;;;15.30;99.90;;;;;;4978153;28;20042;-72
2023/10/05 07:17:43;;;;;;;1999.90;999.90;;;15.40;99.90;;;;;;4985229;28;20042;-72
2023/10/05 07:20:11;;;;;;;1999.90;999.90;;;15.50;99.90;;;;;;4984153;28;20038;-72
2023/10/05 07:22:41;;;;;;;1999.90;999.90;;;15.50;99.90;;;;;;4976280;28;20034;-72
2023/10/05 07:25:11;;;;;;;1999.90;999.90;;;15.60;99.90;;;;;;4979336;28;20042;-72
2023/10/05 07:27:38;;;;;;;1999.90;999.90;;;15.60;99.90;;;;;;4978189;28;20121;-73
2023/10/05 07:30:05;;;;;;;1999.90;999.90;;;15.60;99.90;;;;;;4979494;28;20038;-72
2023/10/05 07:32:32;;;;;;;1999.90;999.90;;;15.60;99.90;;;;;;4964592;28;20081;-72
2023/10/05 07:34:57;;;;;;;1999.90;999.90;;;15.60;99.90;;;;;;4986702;28;20100;-72
2023/10/05 07:37:23;;;;;;;1999.90;999.90;;;15.50;99.90;;;;;;4968829;28;20137;-72
2023/10/05 07:39:51;;;;;;;1999.90;999.90;;;15.50;99.90;;;;;;4959755;28;20035;-72
2023/10/05 07:42:17;;;;;;;1999.90;999.90;;;15.50;99.90;;;;;;4979813;28;20062;-72
2023/10/05 07:44:43;;;;;;;1999.90;999.90;;;15.50;99.90;;;;;;4986461;28;20045;-72
2023/10/05 07:47:11;;;;;;;1999.90;999.90;;;15.50;99.90;;;;;;4957019;28;20080;-72
2023/10/05 07:49:38;;;;;;;1999.90;999.90;;;15.50;99.90;;;;;;4975837;28;20164;-71
2023/10/05 07:52:09;;;;;;;1999.90;999.90;;;15.50;99.90;;;;;;4972950;28;20137;-72
2023/10/05 07:54:37;;;;;;;1999.90;999.90;;;15.40;99.90;;;;;;4977680;28;20054;-71
2023/10/05 07:57:10;;;;;;;1999.90;999.90;;;15.40;99.90;;;;;;4982742;28;20084;-71
2023/10/05 07:59:42;;;;;;;1999.90;999.90;;;15.40;99.90;;;;;;4986229;28;20055;-72
2023/10/05 08:02:12;;;;;;;1999.90;999.90;;;15.40;99.90;;;;;;4983154;28;20088;-72
2023/10/05 08:04:38;;;;;;;1999.90;999.90;;;15.40;99.90;;;;;;4969318;28;20057;-72
2023/10/05 08:07:04;;;;;;;1999.90;999.90;;;15.50;99.90;;;;;;4985041;28;20042;-72
2023/10/05 08:09:30;;;;;;;1999.90;999.90;;;15.40;99.90;;;;;;4998665;28;20411;-71
2023/10/05 08:11:59;;;;;;;1999.90;999.90;;;15.40;99.90;;;;;;4966443;28;20038;-72
2023/10/05 08:14:27;;;;;;;1999.90;999.90;;;15.50;99.90;;;;;;4980534;28;20092;-72
2023/10/05 08:16:55;;;;;;;1999.90;999.90;;;15.50;99.90;;;;;;4996820;28;20053;-72
2023/10/05 08:19:24;;;;;;;1999.90;999.90;;;15.50;99.90;;;;;;4994477;28;20433;-72
2023/10/05 08:21:52;;;;;;;1999.90;999.90;;;15.50;99.90;;;;;;4978794;28;20075;-72
2023/10/05 08:24:17;;;;;;;1999.90;999.90;;;15.60;99.90;;;;;;4993162;28;20483;-71
2023/10/05 08:26:43;;;;;;;1999.90;999.90;;;15.60;99.90;;;;;;4973101;28;20042;-72
2023/10/05 08:29:09;;;;;;;1999.90;999.90;;;15.70;99.90;;;;;;4967787;28;20057;-72
2023/10/05 08:31:36;;;;;;;1999.90;999.90;;;15.70;99.90;;;;;;4983686;28;20046;-71
2023/10/05 08:34:03;;;;;;;1999.90;999.90;;;15.80;99.90;;;;;;4998991;28;20044;-72
2023/10/05 08:36:30;;;;;;;1999.90;999.90;;;15.80;99.90;;;;;;4994903;28;20059;-72
2023/10/05 08:38:56;;;;;;;1999.90;999.90;;;15.80;99.90;;;;;;4978836;28;20058;-71
2023/10/05 08:41:36;;;;;;;1999.90;999.90;;;15.80;99.90;;;;;;5010616;28;20062;-72
2023/10/05 08:44:06;;;;;;;1999.90;999.90;;;15.90;99.90;;;;;;4975584;28;20057;-72
2023/10/05 08:46:43;;;;;;;1999.90;999.90;;;15.90;99.90;;;;;;4974315;28;20046;-73
2023/10/05 08:49:12;;;;;;;1999.90;999.90;;;15.90;99.90;;;;;;4981297;28;20073;-72
2023/10/05 08:51:39;;;;;;;1999.90;999.90;;;15.90;99.90;;;;;;4999987;28;20069;-72
2023/10/05 08:54:14;;;;;;;1999.90;999.90;;;16.00;99.90;;;;;;4985982;28;20043;-72
2023/10/05 08:56:45;;;;;;;1999.90;999.90;;;16.10;99.90;;;;;;4983281;28;20133;-72
2023/10/05 08:59:14;;;;;;;1999.90;999.90;;;16.20;99.90;;;;;;4978003;28;20062;-72
2023/10/05 09:01:45;;;;;;;1999.90;999.90;;;16.20;99.90;;;;;;4979219;28;20117;-72
2023/10/05 09:07:08;;;;;;;1999.90;999.90;;;16.40;99.90;;;;;;4975987;28;20078;-72
2023/10/05 09:10:00;;;;;;;1999.90;999.90;;;16.40;99.90;;;;;;4988663;28;20038;-71
2023/10/05 09:12:37;;;;;;;1999.90;999.90;;;16.30;99.90;;;;;;4995644;28;20499;-72
2023/10/05 09:15:18;;;;;;;1999.90;999.90;;;16.20;99.90;;;;;;4985039;28;20390;-71
2023/10/05 09:20:37;;;;;;;1999.90;999.90;;;16.10;99.90;;;;;;4965715;28;20073;-71
2023/10/05 09:23:07;;;;;;;1999.90;999.90;;;16.20;99.90;;;;;;4991665;28;20069;-73
2023/10/05 09:25:38;;;;;;;1999.90;999.90;;;16.30;99.90;;;;;;4973329;28;20039;-73
2023/10/05 09:28:15;;;;;;;1999.90;999.90;;;16.50;99.90;;;;;;4988336;28;20362;-72
2023/10/05 09:30:55;;;;;;;1999.90;999.90;;;16.60;99.90;;;;;;4987367;28;20057;-72
2023/10/05 09:33:24;;;;;;;1999.90;999.90;;;16.70;99.90;;;;;;4998496;28;20552;-72
2023/10/05 09:35:49;;;;;;;1999.90;999.90;;;16.80;99.90;;;;;;4980638;28;20046;-71
2023/10/05 09:38:21;;;;;;;1999.90;999.90;;;16.90;99.90;;;;;;5010054;28;20510;-72
2023/10/05 09:40:48;;;;;;;1999.90;999.90;;;16.90;99.90;;;;;;4977470;28;20055;-72
2023/10/05 09:43:21;;;;;;;1999.90;999.90;;;16.90;99.90;;;;;;5013114;28;20036;-72
2023/10/05 09:45:52;;;;;;;1999.90;999.90;;;17.00;99.90;;;;;;5019757;28;20070;-71
2023/10/05 09:48:20;;;;;;;1999.90;999.90;;;17.20;99.90;;;;;;5003886;28;20046;-72
2023/10/05 09:50:47;;;;;;;1999.90;999.90;;;17.10;99.90;;;;;;4988972;28;20047;-72
2023/10/05 09:53:17;;;;;;;1999.90;999.90;;;17.00;99.90;;;;;;5002117;28;20054;-72
2023/10/05 09:55:46;;;;;;;1999.90;999.90;;;17.10;99.90;;;;;;4984378;28;20081;-72
2023/10/05 09:58:13;;;;;;;1999.90;999.90;;;17.00;99.90;;;;;;5010828;28;20122;-72
2023/10/05 10:03:05;;;;;;;1999.90;999.90;;;17.30;99.90;;;;;;5005665;28;20054;-72
2023/10/05 10:05:37;;;;;;;1999.90;999.90;;;17.40;99.90;;;;;;4996970;28;20056;-72
2023/10/05 10:08:13;;;;;;;1999.90;999.90;;;17.50;99.90;;;;;;4985524;28;20042;-72
2023/10/05 10:10:43;;;;;;;1999.90;999.90;;;17.60;99.90;;;;;;5011427;28;20507;-72
2023/10/05 10:13:11;;;;;;;1999.90;999.90;;;17.60;99.90;;;;;;4986087;28;20521;-72
2023/10/05 10:15:45;;;;;;;1999.90;999.90;;;17.50;99.90;;;;;;4979585;28;20047;-72
2023/10/05 10:18:14;;;;;;;1999.90;999.90;;;17.30;99.90;;;;;;4979968;28;20397;-71
2023/10/05 10:20:47;;;;;;;1999.90;999.90;;;17.10;99.90;;;;;;4979722;28;20375;-71
2023/10/05 10:23:35;;;;;;;1999.90;999.90;;;16.90;99.90;;;;;;4955767;28;20038;-71
2023/10/05 10:26:24;;;;;;;1999.90;999.90;;;16.90;99.90;;;;;;4974387;28;20043;-72
2023/10/05 10:28:56;;;;;;;1999.90;999.90;;;17.00;99.90;;;;;;4981910;28;20081;-71
2023/10/05 10:31:30;;;;;;;1999.90;999.90;;;17.00;99.90;;;;;;4979004;28;20694;-72
2023/10/05 10:34:08;;;;;;;1999.90;999.90;;;17.10;99.90;;;;;;4968218;28;20407;-72
2023/10/05 10:36:51;;;;;;;1999.90;999.90;;;17.10;99.90;;;;;;4977809;28;20058;-72
2023/10/05 10:42:13;;;;;;;1999.90;999.90;;;17.00;99.90;;;;;;4974302;28;20487;-72
2023/10/05 10:47:15;;;;;;;1999.90;999.90;;;17.00;99.90;;;;;;4972269;28;20050;-72
2023/10/05 10:49:59;;;;;;;1999.90;999.90;;;17.00;99.90;;;;;;4979317;28;20117;-72
2023/10/05 10:52:25;;;;;;;1999.90;999.90;;;17.20;99.90;;;;;;4978895;28;20043;-71
2023/10/05 10:54:57;;;;;;;1999.90;999.90;;;17.40;99.90;;;;;;4985442;28;20367;-72
2023/10/05 10:57:23;;;;;;;1999.90;999.90;;;17.70;99.90;;;;;;4976761;28;20069;-72
2023/10/05 11:00:37;;;;;;;1999.90;999.90;;;17.80;99.90;;;;;;4975714;28;20084;-72
2023/10/05 11:02:38;;;;;;;1999.90;999.90;;;18.00;99.90;;;;;;4963231;28;20057;-72
2023/10/05 11:05:05;;;;;;;1999.90;999.90;;;18.20;99.90;;;;;;4975163;28;20454;-72
2023/10/05 11:07:34;;;;;;;1999.90;999.90;;;18.40;99.90;;;;;;4969806;28;20444;-72
2023/10/05 11:10:02;;;;;;;1999.90;999.90;;;18.70;99.90;;;;;;4977510;28;20344;-72
2023/10/05 11:12:29;;;;;;;1999.90;999.90;;;19.10;99.90;;;;;;4971863;28;20103;-72
2023/10/05 11:15:11;;;;;;;1999.90;999.90;;;19.60;99.90;;;;;;4978241;28;20069;-72
2023/10/05 11:17:43;;;;;;;1999.90;999.90;;;19.90;99.90;;;;;;4967201;28;20552;-72
2023/10/05 11:20:24;;;;;;;183.25;174.93;;;20.10;99.90;;;;;;4975318;28;20042;-72
2023/10/05 11:23:01;;;;;;;305.58;291.17;;;20.30;99.90;;;;;;4992506;28;20065;-72
2023/10/05 11:25:35;;;;;;;291.52;277.98;;;20.50;99.90;;;;;;4980125;28;20561;-72
2023/10/05 11:28:07;;;;;;;362.30;344.13;;;20.70;99.90;;;;;;4947243;28;20042;-73
2023/10/05 11:30:47;;;;;;;174.75;166.45;;;20.70;99.90;;;;;;4988757;28;20510;-73
2023/10/05 11:33:15;;;;;;;88.45;83.93;;;20.60;99.90;;;;;;4960882;28;20053;-73
2023/10/05 11:35:54;;;;;;;149.98;143.05;;;20.50;99.90;;;;;;4992090;28;20080;-73
2023/10/05 11:38:26;;;;;;;393.23;373.30;;;20.60;99.90;;;;;;4976633;28;20047;-73
2023/10/05 11:40:56;;;;;;;80.13;76.22;;;20.70;99.90;;;;;;4980937;28;20062;-73
2023/10/05 11:43:22;;;;;;;83.28;79.47;;;20.60;99.90;;;;;;4993557;28;20046;-73
2023/10/05 11:46:17;;;;;;;121.38;115.88;;;20.20;99.90;;;;;;4985863;28;20099;-73
2023/10/05 11:48:56;;;;;;;256.17;244.88;;;19.50;99.90;;;;;;4972765;28;20061;-71
2023/10/05 11:51:41;;;;;;;362.92;344.45;;;19.00;99.90;;;;;;4972403;28;20125;-72
2023/10/05 11:54:08;;;;;;;1999.90;999.90;;;18.40;99.90;;;;;;4972642;28;20361;-72
2023/10/05 11:56:34;;;;;;;1999.90;999.90;;;17.80;99.90;;;;;;4974848;28;20086;-72
2023/10/05 11:59:00;;;;;;;1999.90;999.90;;;17.50;99.90;;;;;;4974681;28;20138;-72
2023/10/05 12:01:27;;;;;;;1999.90;999.90;;;17.30;99.90;;;;;;4974549;28;20046;-71
2023/10/05 12:03:54;;;;;;;1999.90;999.90;;;17.10;99.90;;;;;;4976304;28;20042;-71
2023/10/05 12:06:26;;;;;;;1999.90;999.90;;;16.90;99.90;;;;;;4978774;28;20558;-71
2023/10/05 12:08:53;;;;;;;1999.90;999.90;;;16.80;99.90;;;;;;4977728;28;20066;-71
2023/10/05 12:11:24;;;;;;;1999.90;999.90;;;16.80;99.90;;;;;;4967346;28;20042;-71
2023/10/05 12:13:56;;;;;;;1999.90;999.90;;;16.80;99.90;;;;;;4971109;28;20085;-71
2023/10/05 12:16:23;;;;;;;1999.90;999.90;;;16.60;99.90;;;;;;4968578;28;20118;-72
2023/10/05 12:18:49;;;;;;;1999.90;999.90;;;16.50;99.90;;;;;;4970025;28;20045;-72
2023/10/05 12:21:18;;;;;;;1999.90;999.90;;;16.50;99.90;;;;;;4971125;28;20051;-72
2023/10/05 12:23:43;;;;;;;1999.90;999.90;;;16.70;99.90;;;;;;4979275;28;20050;-72
2023/10/05 12:26:10;;;;;;;1999.90;999.90;;;16.70;99.90;;;;;;4977813;28;20038;-72
2023/10/05 12:28:37;;;;;;;1999.90;999.90;;;16.90;99.90;;;;;;4977317;28;20113;-72
2023/10/05 12:31:06;;;;;;;1999.90;999.90;;;16.90;99.90;;;;;;4953128;28;20051;-72
2023/10/05 12:33:32;;;;;;;1999.90;999.90;;;16.90;99.90;;;;;;4977284;28;20065;-72
2023/10/05 12:35:57;;;;;;;1999.90;999.90;;;16.90;99.90;;;;;;4978773;28;20042;-72
2023/10/05 12:38:23;;;;;;;1999.90;999.90;;;16.90;99.90;;;;;;4978116;28;20082;-72
2023/10/05 12:40:49;;;;;;;1999.90;999.90;;;16.90;99.90;;;;;;4982232;28;20081;-72
2023/10/05 12:43:17;;;;;;;1999.90;999.90;;;16.90;99.90;;;;;;5001568;28;20263;-72
2023/10/05 12:45:44;;;;;;;1999.90;999.90;;;16.80;99.90;;;;;;4977541;28;20039;-72
2023/10/05 12:48:11;;;;;;;1999.90;999.90;;;16.80;99.90;;;;;;4982054;28;20046;-72
2023/10/05 12:50:39;;;;;;;1999.90;999.90;;;16.80;99.90;;;;;;4979271;28;20095;-72